Time;durP1;ratioP1;P1;durP2;ratioP2;P2;SDS_P1;SDS_P2;PMS_P1;PMS_P2;Temp;Humidity;BMP_temperature;BMP_pressure;BME280_temperature;BME280_humidity;BME280_pressure;Samples;Min_cycle;Max_cycle;Signal;HPM_P1;HPM_P2
2023/12/24 00:01:57;;;;;;;12.68;3.63;;;8.50;98.10;;;;;;5096575;28;20043;-49
2023/12/24 00:04:27;;;;;;;8.63;2.97;;;8.50;98.00;;;;;;5096431;28;20028;-49
2023/12/24 00:06:53;;;;;;;12.73;3.97;;;8.50;98.00;;;;;;5095657;28;20067;-49
2023/12/24 00:09:20;;;;;;;15.98;3.60;;;8.50;98.00;;;;;;5095958;28;20028;-50
2023/12/24 00:11:52;;;;;;;12.20;3.22;;;8.50;98.00;;;;;;5096329;28;20030;-47
2023/12/24 00:14:18;;;;;;;12.32;3.55;;;8.50;98.00;;;;;;5079848;28;20049;-48
2023/12/24 00:16:45;;;;;;;12.75;2.80;;;8.50;98.00;;;;;;5058304;28;20233;-48
2023/12/24 00:19:12;;;;;;;9.23;2.80;;;8.50;98.10;;;;;;5075922;28;20078;-49
2023/12/24 00:21:38;;;;;;;13.45;3.42;;;8.50;98.00;;;;;;5093462;28;20031;-50
2023/12/24 00:24:05;;;;;;;10.50;2.83;;;8.50;98.00;;;;;;5095970;28;20020;-48
2023/12/24 00:26:32;;;;;;;14.27;4.13;;;8.50;98.00;;;;;;5095913;28;20032;-49
2023/12/24 00:28:59;;;;;;;12.90;3.13;;;8.50;98.00;;;;;;5095730;28;20025;-48
2023/12/24 00:31:26;;;;;;;7.50;2.40;;;8.50;98.00;;;;;;5077445;28;20469;-50
2023/12/24 00:33:52;;;;;;;7.80;2.30;;;8.50;98.00;;;;;;5081267;28;20039;-49
2023/12/24 00:36:19;;;;;;;7.07;2.58;;;8.60;98.00;;;;;;5095859;28;20024;-50
2023/12/24 00:38:45;;;;;;;9.23;2.33;;;8.60;98.00;;;;;;5073001;28;20032;-48
2023/12/24 00:41:13;;;;;;;4.55;1.90;;;8.60;98.00;;;;;;5075445;28;20074;-49
2023/12/24 00:43:40;;;;;;;9.45;2.15;;;8.60;98.00;;;;;;5082461;28;20016;-49
2023/12/24 00:46:07;;;;;;;8.48;2.28;;;8.60;98.00;;;;;;5076529;28;20038;-48
2023/12/24 00:48:34;;;;;;;9.95;2.40;;;8.60;98.00;;;;;;5093028;28;20035;-49
2023/12/24 00:51:04;;;;;;;9.27;2.20;;;8.60;98.00;;;;;;5075493;28;20017;-51
2023/12/24 00:53:30;;;;;;;5.50;2.30;;;8.60;98.00;;;;;;5079530;28;20012;-50
2023/12/24 00:56:00;;;;;;;8.45;2.65;;;8.60;98.00;;;;;;5076041;28;20029;-50
2023/12/24 00:58:27;;;;;;;;;;;8.50;98.00;;;;;;5057714;28;20500;-48
2023/12/24 01:00:54;;;;;;;8.30;2.10;;;8.50;98.00;;;;;;5057647;28;20338;-50
2023/12/24 01:03:22;;;;;;;8.98;3.20;;;8.50;98.00;;;;;;5075151;28;20430;-49
2023/12/24 01:05:48;;;;;;;6.97;2.50;;;8.50;98.00;;;;;;5076888;28;20078;-51
2023/12/24 01:08:17;;;;;;;8.23;3.13;;;8.60;98.00;;;;;;5094763;28;20028;-49
2023/12/24 01:10:46;;;;;;;6.50;3.67;;;8.50;98.00;;;;;;5095136;28;20032;-49
2023/12/24 01:13:12;;;;;;;7.28;2.45;;;8.60;98.00;;;;;;5088385;28;20032;-48
2023/12/24 01:15:39;;;;;;;7.35;3.25;;;8.60;98.00;;;;;;5094869;28;20039;-48
2023/12/24 01:18:05;;;;;;;6.72;2.70;;;8.50;98.00;;;;;;5094742;28;20028;-51
2023/12/24 01:20:32;;;;;;;7.68;2.53;;;8.60;98.00;;;;;;5094417;28;20020;-49
2023/12/24 01:22:59;;;;;;;7.45;2.72;;;8.60;98.00;;;;;;5075085;28;20334;-51
2023/12/24 01:25:26;;;;;;;8.25;2.60;;;8.60;98.00;;;;;;5066385;28;20438;-50
2023/12/24 01:27:53;;;;;;;5.70;2.25;;;8.50;98.00;;;;;;5080752;28;20032;-49
2023/12/24 01:30:20;;;;;;;5.53;2.30;;;8.50;98.00;;;;;;5110529;28;20028;-48
2023/12/24 01:32:50;;;;;;;9.07;2.45;;;8.60;98.00;;;;;;5093378;28;20024;-50
2023/12/24 01:35:17;;;;;;;6.40;2.15;;;8.50;98.00;;;;;;5094193;28;20028;-49
2023/12/24 01:37:44;;;;;;;9.43;4.03;;;8.50;98.00;;;;;;5094315;28;20446;-50
2023/12/24 01:40:11;;;;;;;4.78;1.90;;;8.60;98.00;;;;;;5094585;28;20850;-51
2023/12/24 01:42:38;;;;;;;3.78;1.88;;;8.60;98.00;;;;;;5079506;28;20506;-52
2023/12/24 01:45:03;;;;;;;5.40;2.20;;;8.60;98.00;;;;;;5092577;28;20035;-51
2023/12/24 01:47:33;;;;;;;7.03;1.67;;;8.60;98.00;;;;;;5094048;28;20027;-49
2023/12/24 01:50:00;;;;;;;6.60;2.20;;;8.60;98.00;;;;;;5093895;28;20016;-48
2023/12/24 01:52:30;;;;;;;4.93;2.00;;;8.60;98.00;;;;;;5091768;28;20052;-48
2023/12/24 01:54:59;;;;;;;4.40;1.98;;;8.60;98.00;;;;;;5094297;28;20095;-48
2023/12/24 01:57:31;;;;;;;8.50;2.45;;;8.60;98.00;;;;;;5073497;28;20040;-49
2023/12/24 01:59:59;;;;;;;6.07;2.38;;;8.60;98.00;;;;;;5089087;28;20020;-50
2023/12/24 02:02:32;;;;;;;6.45;2.17;;;8.60;98.00;;;;;;5077700;28;20051;-52
2023/12/24 02:04:59;;;;;;;6.78;2.80;;;8.60;98.00;;;;;;5080942;28;20032;-50
2023/12/24 02:07:27;;;;;;;5.97;2.10;;;8.60;98.00;;;;;;5075484;28;20043;-49
2023/12/24 02:09:55;;;;;;;6.72;3.35;;;8.60;98.00;;;;;;5093578;28;20038;-51
2023/12/24 02:12:21;;;;;;;9.30;2.83;;;8.60;98.00;;;;;;5089592;28;20028;-49
2023/12/24 02:14:50;;;;;;;5.75;2.80;;;8.60;98.00;;;;;;5073009;28;20036;-50
2023/12/24 02:17:19;;;;;;;7.38;2.75;;;8.70;98.00;;;;;;5073059;28;20024;-50
2023/12/24 02:19:49;;;;;;;8.55;2.65;;;8.60;98.00;;;;;;5055177;28;20029;-52
2023/12/24 02:22:16;;;;;;;6.57;2.60;;;8.60;98.00;;;;;;5073502;28;20434;-55
2023/12/24 02:24:43;;;;;;;12.13;4.40;;;8.60;97.90;;;;;;5087578;28;20064;-55
2023/12/24 02:27:33;;;;;;;5.97;3.28;;;8.70;98.00;;;;;;5073246;28;20041;-52
2023/12/24 02:30:03;;;;;;;;;;;8.60;97.90;;;;;;5073659;28;20024;-50
2023/12/24 02:32:30;;;;;;;14.23;3.42;;;8.70;97.90;;;;;;5073312;28;20529;-49
2023/12/24 02:34:59;;;;;;;7.95;2.22;;;8.70;97.90;;;;;;5082679;28;20023;-49
2023/12/24 02:37:26;;;;;;;6.53;2.53;;;8.60;98.00;;;;;;5090440;28;20052;-49
2023/12/24 02:39:53;;;;;;;10.57;3.20;;;8.60;98.00;;;;;;5073190;28;20100;-49
2023/12/24 02:42:21;;;;;;;10.65;3.75;;;8.60;98.00;;;;;;5073011;28;20025;-50
2023/12/24 02:44:50;;;;;;;7.07;2.40;;;8.60;98.00;;;;;;5085753;28;20032;-50
2023/12/24 02:47:17;;;;;;;8.55;2.58;;;8.60;98.00;;;;;;5093205;28;20448;-49
2023/12/24 02:49:45;;;;;;;5.60;2.40;;;8.60;98.00;;;;;;5089099;28;20081;-49
2023/12/24 02:52:12;;;;;;;5.45;2.20;;;8.60;98.00;;;;;;5072760;28;20032;-51
2023/12/24 02:54:39;;;;;;;12.75;2.72;;;8.60;98.00;;;;;;5057488;28;20021;-53
2023/12/24 02:57:06;;;;;;;6.13;2.15;;;8.70;98.00;;;;;;5073219;28;20335;-50
2023/12/24 02:59:32;;;;;;;8.00;2.35;;;8.60;98.00;;;;;;5072713;28;20059;-49
2023/12/24 03:01:59;;;;;;;6.90;2.28;;;8.70;98.00;;;;;;5072906;28;20027;-49
2023/12/24 03:04:28;;;;;;;5.15;2.47;;;8.60;98.00;;;;;;5076481;28;20058;-47
2023/12/24 03:06:54;;;;;;;8.48;3.08;;;8.70;98.00;;;;;;5092765;28;20035;-47
2023/12/24 03:09:23;;;;;;;6.78;2.80;;;8.70;98.00;;;;;;5092966;28;20035;-50
2023/12/24 03:11:51;;;;;;;7.78;2.65;;;8.70;98.00;;;;;;5090730;28;20031;-50
2023/12/24 03:14:16;;;;;;;7.70;3.20;;;8.70;98.00;;;;;;5092587;28;20086;-49
2023/12/24 03:16:43;;;;;;;7.15;3.20;;;8.70;98.00;;;;;;5092916;28;20051;-49
2023/12/24 03:19:13;;;;;;;8.32;2.70;;;8.70;98.00;;;;;;5073709;28;20427;-54
2023/12/24 03:21:42;;;;;;;7.65;2.47;;;8.70;98.00;;;;;;5092990;28;20089;-51
2023/12/24 03:24:08;;;;;;;6.03;2.33;;;8.70;98.00;;;;;;5093165;28;20073;-52
2023/12/24 03:26:35;;;;;;;6.90;2.72;;;8.70;98.00;;;;;;5092143;28;20036;-49
2023/12/24 03:29:02;;;;;;;7.28;2.30;;;8.70;98.00;;;;;;5073221;28;20126;-52
2023/12/24 03:31:29;;;;;;;5.10;2.53;;;8.70;98.00;;;;;;5076215;28;20138;-49
2023/12/24 03:33:56;;;;;;;8.40;2.67;;;8.70;98.00;;;;;;5082475;28;20033;-50
2023/12/24 03:36:21;;;;;;;4.82;2.38;;;8.70;98.00;;;;;;5097279;28;20039;-49
2023/12/24 03:38:47;;;;;;;7.32;2.05;;;8.70;98.00;;;;;;5093125;28;20021;-52
2023/12/24 03:41:12;;;;;;;7.13;2.17;;;8.70;98.00;;;;;;5077100;28;20484;-49
2023/12/24 03:43:39;;;;;;;3.92;1.77;;;8.70;98.00;;;;;;5077042;28;20107;-49
2023/12/24 03:46:06;;;;;;;4.22;1.60;;;8.70;98.00;;;;;;5090278;28;20031;-49
2023/12/24 03:48:38;;;;;;;3.13;1.60;;;8.70;98.00;;;;;;5097057;28;20345;-52
2023/12/24 03:51:05;;;;;;;5.63;1.50;;;8.70;98.00;;;;;;5094574;28;20020;-50
2023/12/24 03:53:31;;;;;;;3.80;1.17;;;8.70;97.90;;;;;;5074293;28;20031;-49
2023/12/24 03:56:00;;;;;;;3.50;1.20;;;8.70;98.00;;;;;;5096856;28;20020;-49
2023/12/24 03:58:26;;;;;;;7.70;1.50;;;8.70;98.00;;;;;;5095927;28;20449;-50
2023/12/24 04:00:51;;;;;;;2.95;1.00;;;8.70;98.00;;;;;;5076253;28;20033;-53
2023/12/24 04:03:18;;;;;;;2.83;1.05;;;8.70;98.00;;;;;;5076598;28;20103;-50
2023/12/24 04:05:45;;;;;;;3.08;1.30;;;8.70;98.00;;;;;;5084206;28;20307;-49
2023/12/24 04:08:13;;;;;;;2.95;1.42;;;8.70;98.00;;;;;;5086527;28;20032;-53
2023/12/24 04:10:40;;;;;;;3.60;1.77;;;8.70;98.00;;;;;;5096332;28;20024;-49
2023/12/24 04:13:11;;;;;;;3.42;1.40;;;8.80;98.00;;;;;;5096301;28;20020;-49
2023/12/24 04:15:38;;;;;;;3.15;1.38;;;8.80;98.00;;;;;;5094919;28;20063;-50
2023/12/24 04:18:06;;;;;;;8.70;1.77;;;8.80;98.00;;;;;;5076076;28;20090;-51
2023/12/24 04:20:35;;;;;;;6.20;1.55;;;8.80;98.00;;;;;;5076131;28;20450;-54
2023/12/24 04:23:02;;;;;;;3.65;1.50;;;8.80;98.00;;;;;;5093568;28;20068;-53
2023/12/24 04:25:29;;;;;;;2.67;1.33;;;8.80;98.00;;;;;;5089091;28;20050;-51
2023/12/24 04:27:58;;;;;;;5.03;1.67;;;8.80;98.00;;;;;;5086991;28;20116;-49
2023/12/24 04:30:27;;;;;;;5.03;1.67;;;8.80;98.00;;;;;;5095701;28;20024;-52
2023/12/24 04:32:54;;;;;;;3.42;1.67;;;8.80;98.00;;;;;;5088441;28;20028;-51
2023/12/24 04:35:21;;;;;;;2.72;1.30;;;8.90;98.10;;;;;;5081659;28;20032;-50
2023/12/24 04:37:48;;;;;;;3.45;1.50;;;8.80;98.00;;;;;;5096216;28;20397;-49
2023/12/24 04:40:15;;;;;;;3.33;1.30;;;8.80;98.10;;;;;;5102540;28;20056;-49
2023/12/24 04:42:40;;;;;;;6.43;1.60;;;8.90;98.10;;;;;;5085585;28;20020;-49
2023/12/24 04:45:07;;;;;;;6.30;2.40;;;8.90;98.10;;;;;;5084925;28;20475;-50
2023/12/24 04:47:34;;;;;;;7.38;4.30;;;8.90;98.00;;;;;;5083764;28;20032;-50
2023/12/24 04:50:00;;;;;;;13.25;5.22;;;8.90;98.00;;;;;;5091819;28;20345;-49
2023/12/24 04:52:27;;;;;;;5.55;2.88;;;8.90;98.00;;;;;;5095632;28;20387;-51
2023/12/24 04:54:54;;;;;;;7.68;2.35;;;8.90;98.00;;;;;;5089019;28;20036;-51
2023/12/24 04:57:20;;;;;;;3.65;1.60;;;8.90;98.10;;;;;;5085923;28;20438;-49
2023/12/24 04:59:47;;;;;;;3.97;1.35;;;8.90;98.10;;;;;;5086663;28;20107;-49
2023/12/24 05:02:14;;;;;;;2.05;1.00;;;8.90;98.10;;;;;;5084443;28;20024;-49
2023/12/24 05:04:41;;;;;;;4.20;1.90;;;8.90;98.10;;;;;;5084196;28;20033;-49
2023/12/24 05:07:07;;;;;;;10.93;5.57;;;8.90;98.10;;;;;;5088418;28;20357;-50
2023/12/24 05:09:34;;;;;;;18.27;8.23;;;8.90;98.10;;;;;;5080756;28;20063;-49
2023/12/24 05:12:03;;;;;;;4.80;3.17;;;8.90;98.10;;;;;;5082546;28;20029;-53
2023/12/24 05:14:32;;;;;;;4.73;2.47;;;9.00;98.10;;;;;;5091577;28;20041;-50
2023/12/24 05:16:58;;;;;;;2.65;1.10;;;9.00;98.10;;;;;;5078240;28;20762;-51
2023/12/24 05:19:25;;;;;;;1.65;0.82;;;8.90;98.10;;;;;;5093389;28;20028;-49
2023/12/24 05:21:52;;;;;;;2.50;1.20;;;9.00;98.10;;;;;;5095386;28;20095;-49
2023/12/24 05:24:21;;;;;;;2.05;0.90;;;9.00;98.10;;;;;;5095234;28;20028;-51
2023/12/24 05:26:46;;;;;;;1.98;0.93;;;9.00;98.10;;;;;;5079398;28;20135;-49
2023/12/24 05:29:13;;;;;;;2.05;0.60;;;9.00;98.10;;;;;;5076894;28;20111;-51
2023/12/24 05:31:41;;;;;;;1.85;0.88;;;9.00;98.10;;;;;;5095089;28;20053;-50
2023/12/24 05:34:08;;;;;;;0.88;0.47;;;9.00;98.10;;;;;;5094899;28;20090;-51
2023/12/24 05:36:36;;;;;;;1.35;0.68;;;9.00;98.10;;;;;;5075541;28;20032;-49
2023/12/24 05:39:06;;;;;;;2.63;0.70;;;9.10;98.10;;;;;;5074666;28;20028;-49
2023/12/24 05:41:34;;;;;;;3.17;0.70;;;9.10;98.10;;;;;;5074673;28;20028;-52
2023/12/24 05:44:01;;;;;;;1.08;0.55;;;9.00;98.10;;;;;;5092290;28;20034;-51
2023/12/24 05:46:28;;;;;;;1.88;0.80;;;9.10;98.10;;;;;;5094514;28;20384;-49
2023/12/24 05:48:54;;;;;;;1.40;0.70;;;9.00;98.10;;;;;;5094280;28;20020;-51
2023/12/24 05:51:21;;;;;;;2.28;0.93;;;9.10;98.10;;;;;;5088118;28;20036;-49
2023/12/24 05:53:48;;;;;;;2.67;0.73;;;9.10;98.10;;;;;;5072972;28;20037;-49
2023/12/24 05:56:14;;;;;;;1.48;0.70;;;9.20;98.10;;;;;;5073635;28;20331;-51
2023/12/24 05:58:41;;;;;;;1.10;0.60;;;9.10;98.10;;;;;;5090712;28;20513;-50
2023/12/24 06:01:10;;;;;;;1.48;0.68;;;9.10;98.10;;;;;;5089499;28;20032;-50
2023/12/24 06:03:37;;;;;;;1.38;0.80;;;9.10;98.10;;;;;;5074149;28;20017;-49
2023/12/24 06:06:04;;;;;;;1.33;0.70;;;9.10;98.10;;;;;;5074325;28;20035;-48
2023/12/24 06:08:30;;;;;;;1.38;0.65;;;9.10;98.10;;;;;;5074205;28;20103;-50
2023/12/24 06:10:57;;;;;;;3.45;0.73;;;9.20;98.10;;;;;;5090976;28;20104;-52
2023/12/24 06:13:22;;;;;;;1.05;0.50;;;9.10;98.10;;;;;;5076579;28;20029;-48
2023/12/24 06:15:49;;;;;;;1.52;0.60;;;9.20;98.20;;;;;;5073890;28;20028;-49
2023/12/24 06:18:16;;;;;;;1.90;0.70;;;9.20;98.10;;;;;;5073946;28;20036;-49
2023/12/24 06:20:46;;;;;;;1.58;0.75;;;9.20;98.10;;;;;;5094463;28;20032;-49
2023/12/24 06:23:13;;;;;;;1.02;0.63;;;9.20;98.20;;;;;;5094188;28;20031;-50
2023/12/24 06:25:39;;;;;;;1.90;1.23;;;9.20;98.10;;;;;;5108702;28;20131;-51
2023/12/24 06:28:12;;;;;;;2.17;0.70;;;9.20;98.10;;;;;;5073821;28;20581;-53
2023/12/24 06:30:39;;;;;;;3.28;0.73;;;9.20;98.20;;;;;;5080778;28;20038;-53
2023/12/24 06:33:05;;;;;;;2.05;0.80;;;9.20;98.20;;;;;;5109395;28;20027;-51
2023/12/24 06:35:32;;;;;;;2.15;0.60;;;9.30;98.20;;;;;;5093722;28;20020;-49
2023/12/24 06:38:01;;;;;;;2.33;0.60;;;9.30;98.20;;;;;;5089950;28;20029;-49
2023/12/24 06:40:27;;;;;;;1.70;0.80;;;9.30;98.20;;;;;;5089063;28;20024;-49
2023/12/24 06:42:54;;;;;;;2.70;0.82;;;9.30;98.10;;;;;;5093901;28;20031;-51
2023/12/24 06:45:19;;;;;;;1.00;0.60;;;9.30;98.20;;;;;;5078303;28;20032;-51
2023/12/24 06:47:47;;;;;;;1.17;0.60;;;9.30;98.20;;;;;;5073171;28;20043;-48
2023/12/24 06:50:14;;;;;;;1.80;0.63;;;9.30;98.20;;;;;;5084543;28;20050;-51
2023/12/24 06:52:41;;;;;;;1.40;0.70;;;9.30;98.20;;;;;;5090570;28;20028;-52
2023/12/24 06:55:07;;;;;;;1.05;0.65;;;9.30;98.20;;;;;;5073134;28;20035;-53
2023/12/24 06:57:37;;;;;;;1.42;0.88;;;9.30;98.20;;;;;;5073194;28;20020;-49
2023/12/24 07:00:05;;;;;;;1.73;0.80;;;9.40;98.20;;;;;;5072075;28;20487;-49
2023/12/24 07:02:32;;;;;;;2.35;1.00;;;9.40;98.20;;;;;;5093312;28;20031;-49
2023/12/24 07:04:58;;;;;;;2.40;1.10;;;9.40;98.20;;;;;;5092070;28;20563;-50
2023/12/24 07:07:24;;;;;;;4.05;1.10;;;9.40;98.20;;;;;;5079853;28;20111;-51
2023/12/24 07:09:54;;;;;;;2.55;1.38;;;9.40;98.20;;;;;;5073122;28;20047;-51
2023/12/24 07:12:21;;;;;;;3.35;1.38;;;9.40;98.20;;;;;;5073107;28;20056;-51
2023/12/24 07:14:49;;;;;;;3.88;2.05;;;9.40;98.30;;;;;;5073008;28;20048;-49
2023/12/24 07:17:18;;;;;;;4.22;1.98;;;9.40;98.20;;;;;;5072963;28;20099;-49
2023/12/24 07:19:45;;;;;;;3.95;1.52;;;9.40;98.30;;;;;;5079769;28;20016;-49
2023/12/24 07:22:15;;;;;;;4.57;1.80;;;9.50;98.30;;;;;;5072844;28;20020;-50
2023/12/24 07:24:43;;;;;;;3.72;1.83;;;9.50;98.20;;;;;;5073483;28;20680;-49
2023/12/24 07:27:09;;;;;;;5.70;2.03;;;9.50;98.20;;;;;;5084507;28;20023;-49
2023/12/24 07:29:37;;;;;;;5.50;2.80;;;9.50;98.30;;;;;;5073290;28;20037;-51
2023/12/24 07:32:06;;;;;;;5.00;1.98;;;9.50;98.30;;;;;;5071853;28;20115;-51
2023/12/24 07:34:33;;;;;;;6.75;2.63;;;9.60;98.30;;;;;;5079260;28;20020;-53
2023/12/24 07:37:00;;;;;;;6.55;2.60;;;9.60;98.30;;;;;;5082721;28;20029;-49
2023/12/24 07:39:26;;;;;;;6.18;2.60;;;9.60;98.30;;;;;;5072991;28;20029;-50
2023/12/24 07:41:56;;;;;;;5.45;3.30;;;9.60;98.30;;;;;;5073120;28;20361;-51
2023/12/24 07:44:23;;;;;;;9.35;3.22;;;9.60;98.30;;;;;;5072799;28;20025;-49
2023/12/24 07:46:51;;;;;;;8.82;2.90;;;9.60;98.30;;;;;;5072787;28;20029;-51
2023/12/24 07:49:18;;;;;;;7.50;2.88;;;9.60;98.30;;;;;;5072668;28;20093;-50
2023/12/24 07:51:48;;;;;;;8.27;2.95;;;9.60;98.30;;;;;;5072782;28;20052;-50
2023/12/24 07:54:15;;;;;;;;;;;9.70;98.30;;;;;;5082749;28;20054;-52
2023/12/24 07:56:42;;;;;;;7.80;3.10;;;9.60;98.30;;;;;;5092881;28;19904;-51
2023/12/24 07:59:09;;;;;;;7.72;3.53;;;9.70;98.40;;;;;;5091713;28;20107;-55
2023/12/24 08:01:39;;;;;;;9.82;3.53;;;9.70;98.40;;;;;;5091876;28;20060;-50
2023/12/24 08:04:08;;;;;;;8.88;3.35;;;9.70;98.30;;;;;;5072921;28;20067;-50
2023/12/24 08:06:35;;;;;;;11.10;3.13;;;9.70;98.40;;;;;;5072624;28;20047;-50
2023/12/24 08:09:01;;;;;;;6.88;3.33;;;9.70;98.40;;;;;;5078983;28;20142;-53
2023/12/24 08:11:27;;;;;;;12.82;3.55;;;9.80;98.40;;;;;;5082566;28;20488;-49
2023/12/24 08:13:54;;;;;;;10.45;5.10;;;9.80;98.40;;;;;;5083423;28;20064;-50
2023/12/24 08:16:20;;;;;;;11.13;4.57;;;9.80;98.40;;;;;;5083392;28;20032;-51
2023/12/24 08:18:47;;;;;;;12.27;5.00;;;9.80;98.40;;;;;;5082401;28;20035;-52
2023/12/24 08:21:14;;;;;;;21.30;6.43;;;9.90;98.40;;;;;;5084568;28;20020;-49
2023/12/24 08:23:41;;;;;;;11.55;6.13;;;9.90;98.40;;;;;;5085303;28;20349;-49
2023/12/24 08:26:09;;;;;;;16.02;6.18;;;9.90;98.40;;;;;;5081665;28;20071;-48
2023/12/24 08:28:40;;;;;;;15.35;6.72;;;9.90;98.40;;;;;;5087517;28;20032;-49
2023/12/24 08:31:07;;;;;;;18.40;7.25;;;9.90;98.40;;;;;;5090981;28;20115;-50
2023/12/24 08:33:34;;;;;;;13.80;6.43;;;9.90;98.40;;;;;;5085955;28;20033;-49
2023/12/24 08:36:05;;;;;;;17.02;7.68;;;10.00;98.40;;;;;;5090492;28;20063;-49
2023/12/24 08:38:32;;;;;;;15.63;6.35;;;10.00;98.40;;;;;;5087989;28;20039;-51
2023/12/24 08:40:59;;;;;;;16.02;6.63;;;10.00;98.40;;;;;;5087128;28;20123;-51
2023/12/24 08:43:26;;;;;;;18.10;6.13;;;10.00;98.40;;;;;;5092492;28;20028;-48
2023/12/24 08:45:52;;;;;;;18.85;6.30;;;10.00;98.40;;;;;;5090348;28;20078;-49
2023/12/24 08:48:21;;;;;;;14.70;5.75;;;10.00;98.40;;;;;;5086984;28;20035;-49
2023/12/24 08:50:48;;;;;;;16.13;5.72;;;9.90;98.40;;;;;;5086853;28;20040;-49
2023/12/24 08:53:18;;;;;;;13.55;5.05;;;10.00;98.50;;;;;;5086730;28;20050;-49
2023/12/24 08:55:44;;;;;;;12.32;5.65;;;10.00;98.50;;;;;;5095508;28;20024;-50
2023/12/24 08:58:11;;;;;;;10.77;4.80;;;10.10;98.40;;;;;;5089393;28;20041;-51
2023/12/24 09:00:38;;;;;;;16.88;5.20;;;10.10;98.50;;;;;;5082786;28;20028;-51
2023/12/24 09:03:05;;;;;;;13.90;4.57;;;10.10;98.50;;;;;;5090928;28;20035;-53
2023/12/24 09:05:31;;;;;;;11.15;4.32;;;10.10;98.40;;;;;;5078195;28;20024;-50
2023/12/24 09:07:58;;;;;;;12.60;5.15;;;10.10;98.40;;;;;;5095482;28;20034;-49
2023/12/24 09:10:25;;;;;;;12.20;3.35;;;10.20;98.50;;;;;;5095110;28;20024;-49
2023/12/24 09:12:52;;;;;;;9.93;4.07;;;10.20;98.40;;;;;;5095157;28;20020;-50
2023/12/24 09:15:19;;;;;;;8.45;3.53;;;10.20;98.40;;;;;;5085383;28;20484;-52
2023/12/24 09:17:48;;;;;;;10.63;4.80;;;10.20;98.40;;;;;;5092218;28;20448;-51
2023/12/24 09:20:14;;;;;;;8.25;3.90;;;10.20;98.40;;;;;;5094854;28;20028;-52
2023/12/24 09:22:45;;;;;;;9.52;3.42;;;10.20;98.40;;;;;;5086680;28;20035;-50
2023/12/24 09:25:11;;;;;;;8.50;3.42;;;10.20;98.40;;;;;;5082635;28;20028;-51
2023/12/24 09:27:38;;;;;;;8.27;3.80;;;10.20;98.40;;;;;;5093043;28;20028;-50
2023/12/24 09:30:07;;;;;;;8.00;3.58;;;10.20;98.40;;;;;;5093285;28;20065;-50
2023/12/24 09:32:34;;;;;;;11.25;3.90;;;10.30;98.40;;;;;;5082854;28;20021;-55
2023/12/24 09:35:01;;;;;;;13.95;4.05;;;10.30;98.40;;;;;;5084691;28;20064;-50
2023/12/24 09:37:30;;;;;;;6.25;3.50;;;10.30;98.40;;;;;;5089724;28;20020;-50
2023/12/24 09:39:57;;;;;;;12.00;4.32;;;10.30;98.40;;;;;;5088802;28;20338;-53
2023/12/24 09:42:23;;;;;;;11.48;3.40;;;10.30;98.40;;;;;;5074463;28;20450;-52
2023/12/24 09:44:50;;;;;;;10.23;3.42;;;10.30;98.40;;;;;;5074633;28;20097;-50
2023/12/24 09:47:19;;;;;;;7.32;3.33;;;10.30;98.40;;;;;;5086346;28;20090;-50
2023/12/24 09:49:45;;;;;;;9.55;3.03;;;10.30;98.40;;;;;;5074073;28;20048;-49
2023/12/24 09:52:14;;;;;;;7.22;3.20;;;10.30;98.40;;;;;;5078702;28;20043;-52
2023/12/24 09:54:42;;;;;;;6.10;3.40;;;10.30;98.40;;;;;;5092533;28;20039;-49
2023/12/24 09:57:09;;;;;;;10.48;3.33;;;10.40;98.40;;;;;;5084396;28;20028;-49
2023/12/24 09:59:35;;;;;;;6.50;3.22;;;10.30;98.40;;;;;;5080680;28;20304;-49
2023/12/24 10:02:02;;;;;;;10.85;2.70;;;10.40;98.40;;;;;;5088171;28;20028;-49
2023/12/24 10:04:30;;;;;;;10.38;3.08;;;10.30;98.40;;;;;;5091138;28;20020;-50
2023/12/24 10:06:58;;;;;;;5.95;2.90;;;10.30;98.40;;;;;;5089586;28;20028;-50
2023/12/24 10:09:41;;;;;;;5.45;2.50;;;10.40;98.40;;;;;;5083035;28;20057;-55
2023/12/24 10:12:11;;;;;;;7.45;2.60;;;10.40;98.40;;;;;;5072235;28;20338;-51
2023/12/24 10:14:58;;;;;;;5.50;2.63;;;10.40;98.40;;;;;;5072887;28;20052;-51
2023/12/24 10:17:32;;;;;;;9.73;2.75;;;10.40;98.40;;;;;;5075876;28;20028;-53
2023/12/24 10:20:03;;;;;;;5.88;2.75;;;10.40;98.40;;;;;;5073652;28;20028;-50
2023/12/24 10:22:30;;;;;;;5.95;2.65;;;10.40;98.40;;;;;;5089869;28;20024;-53
2023/12/24 10:25:02;;;;;;;6.85;3.05;;;10.40;98.40;;;;;;5073426;28;20107;-49
2023/12/24 10:27:29;;;;;;;7.60;2.65;;;10.40;98.40;;;;;;5072507;28;20036;-49
2023/12/24 10:30:12;;;;;;;9.27;3.45;;;10.40;98.30;;;;;;5093519;28;20541;-49
2023/12/24 10:32:40;;;;;;;10.63;2.78;;;10.40;98.40;;;;;;5093439;28;20471;-49
2023/12/24 10:35:07;;;;;;;6.43;2.60;;;10.40;98.40;;;;;;5090960;28;20093;-50
2023/12/24 10:37:34;;;;;;;9.23;2.22;;;10.40;98.40;;;;;;5092509;28;20043;-50
2023/12/24 10:40:11;;;;;;;6.63;3.03;;;10.50;98.40;;;;;;5071633;28;20029;-53
2023/12/24 10:42:38;;;;;;;6.97;3.90;;;10.50;98.40;;;;;;5072828;28;20028;-53
2023/12/24 10:45:08;;;;;;;6.22;2.60;;;10.50;98.40;;;;;;5073287;28;20162;-53
2023/12/24 10:47:38;;;;;;;7.68;2.63;;;10.50;98.40;;;;;;5073066;28;20028;-52
2023/12/24 10:50:09;;;;;;;7.10;3.13;;;10.50;98.40;;;;;;5090151;28;20032;-49
2023/12/24 10:52:36;;;;;;;6.40;3.10;;;10.50;98.30;;;;;;5105598;28;20040;-51
2023/12/24 10:55:03;;;;;;;6.53;2.88;;;10.50;98.40;;;;;;5093076;28;20067;-52
2023/12/24 10:57:41;;;;;;;4.07;2.13;;;10.60;98.40;;;;;;5093157;28;20039;-51
2023/12/24 11:00:26;;;;;;;8.38;2.70;;;10.60;98.40;;;;;;5072964;28;20028;-50
2023/12/24 11:02:53;;;;;;;5.75;2.60;;;10.60;98.30;;;;;;5071433;28;20063;-52
2023/12/24 11:05:56;;;;;;;6.53;2.90;;;10.60;98.30;;;;;;5071948;28;20031;-50
2023/12/24 11:08:24;;;;;;;5.05;2.10;;;10.60;98.40;;;;;;5072480;28;20653;-54
2023/12/24 11:11:04;;;;;;;6.60;1.90;;;10.60;98.40;;;;;;5085278;28;20044;-56
2023/12/24 11:13:36;;;;;;;7.85;2.80;;;10.60;98.40;;;;;;5092870;28;20099;-53
2023/12/24 11:16:09;;;;;;;5.47;3.17;;;10.70;98.30;;;;;;5092799;28;20031;-52
2023/12/24 11:18:56;;;;;;;8.25;3.03;;;10.60;98.30;;;;;;5090379;28;20043;-55
2023/12/24 11:21:22;;;;;;;6.30;2.08;;;10.60;98.40;;;;;;5072714;28;20119;-54
2023/12/24 11:24:14;;;;;;;5.78;2.25;;;10.70;98.30;;;;;;5072527;28;20099;-50
2023/12/24 11:26:53;;;;;;;5.05;2.58;;;10.60;98.30;;;;;;5072440;28;20107;-52
2023/12/24 11:29:48;;;;;;;5.90;1.85;;;10.60;98.30;;;;;;5071069;28;20032;-51
2023/12/24 11:32:32;;;;;;;9.45;2.55;;;10.60;98.30;;;;;;5072728;28;20028;-49
2023/12/24 11:35:00;;;;;;;6.03;1.80;;;10.60;98.40;;;;;;5082597;28;20468;-55
2023/12/24 11:37:34;;;;;;;3.95;2.03;;;10.70;98.40;;;;;;5092512;28;20093;-50
2023/12/24 11:40:19;;;;;;;5.60;2.33;;;10.70;98.40;;;;;;5075032;28;20025;-49
2023/12/24 11:43:03;;;;;;;8.98;3.17;;;10.70;98.40;;;;;;5072329;28;20040;-52
2023/12/24 11:45:30;;;;;;;9.70;4.15;;;10.80;98.40;;;;;;5072209;28;20029;-50
2023/12/24 11:47:57;;;;;;;14.82;6.38;;;10.80;98.40;;;;;;5072104;28;20044;-49
2023/12/24 11:50:24;;;;;;;20.25;7.30;;;10.80;98.40;;;;;;5071848;28;20476;-50
2023/12/24 11:52:51;;;;;;;23.20;9.00;;;10.90;98.40;;;;;;5075170;28;20107;-47
2023/12/24 11:55:19;;;;;;;16.73;7.35;;;10.90;98.40;;;;;;5075900;28;20508;-48
2023/12/24 11:57:49;;;;;;;15.55;4.80;;;10.90;98.40;;;;;;5075932;28;20056;-50
2023/12/24 12:00:27;;;;;;;;;;;10.90;98.30;;;;;;5081451;28;20028;-48
2023/12/24 12:02:58;;;;;;;12.40;5.28;;;10.90;98.30;;;;;;5086490;28;19908;-49
2023/12/24 12:05:25;;;;;;;12.43;4.63;;;11.00;98.40;;;;;;5083833;28;20017;-48
2023/12/24 12:07:53;;;;;;;17.35;4.80;;;11.00;98.30;;;;;;5075898;28;20017;-47
2023/12/24 12:10:23;;;;;;;12.50;3.63;;;11.10;98.30;;;;;;5080721;28;20021;-48
2023/12/24 12:12:52;;;;;;;12.35;4.18;;;11.10;98.30;;;;;;5105008;28;20024;-47
2023/12/24 12:15:23;;;;;;;9.73;4.07;;;11.10;98.30;;;;;;5089825;28;20128;-47
2023/12/24 12:17:50;;;;;;;11.05;3.70;;;11.20;98.30;;;;;;5076076;28;20036;-47
2023/12/24 12:20:16;;;;;;;12.73;4.40;;;11.20;98.20;;;;;;5078890;28;20052;-46
2023/12/24 12:22:43;;;;;;;9.75;4.10;;;11.20;98.20;;;;;;5106112;28;20021;-49
2023/12/24 12:25:10;;;;;;;14.63;4.72;;;11.20;98.10;;;;;;5095179;28;20043;-50
2023/12/24 12:27:37;;;;;;;10.88;3.22;;;11.20;98.20;;;;;;5085503;28;20128;-49
2023/12/24 12:30:04;;;;;;;11.70;2.90;;;11.20;98.10;;;;;;5094087;28;20065;-50
2023/12/24 12:32:31;;;;;;;11.80;3.00;;;11.20;98.00;;;;;;5111299;28;20107;-50
2023/12/24 12:34:58;;;;;;;10.13;3.00;;;11.20;98.00;;;;;;5095864;28;20032;-49
2023/12/24 12:37:25;;;;;;;8.50;3.53;;;11.30;98.10;;;;;;5075675;28;20358;-49
2023/12/24 12:39:51;;;;;;;8.50;3.45;;;11.30;97.90;;;;;;5081496;28;20047;-53
2023/12/24 12:42:20;;;;;;;5.85;2.17;;;11.40;98.00;;;;;;5094064;28;20123;-50
2023/12/24 12:44:47;;;;;;;7.80;1.83;;;11.30;97.80;;;;;;5095224;28;20028;-50
2023/12/24 12:47:13;;;;;;;6.70;2.83;;;11.30;97.90;;;;;;5092277;28;20058;-54
2023/12/24 12:49:41;;;;;;;8.98;2.67;;;11.40;97.90;;;;;;5094935;28;20028;-50
2023/12/24 12:52:11;;;;;;;2.65;1.35;;;11.30;97.70;;;;;;5087819;28;20029;-51
2023/12/24 12:54:37;;;;;;;;;;;11.40;97.70;;;;;;5087052;28;20030;-54
2023/12/24 12:57:04;;;;;;;4.60;1.48;;;11.40;97.80;;;;;;5090798;28;19914;-51
2023/12/24 12:59:32;;;;;;;7.90;2.03;;;11.40;97.60;;;;;;5095045;28;20052;-52